createdAt,value
2023-01-21T00:01:26.970Z,16.65
2023-01-21T00:03:53.420Z,17.77
2023-01-21T00:06:19.770Z,19.92
2023-01-21T00:08:46.251Z,19.90
2023-01-21T00:11:14.673Z,18.90
2023-01-21T00:13:41.476Z,16.98
2023-01-21T00:16:08.096Z,18.00
2023-01-21T00:18:34.561Z,18.17
2023-01-21T00:21:01.044Z,19.92
2023-01-21T00:23:27.631Z,21.40
2023-01-21T00:25:57.840Z,20.30
2023-01-21T00:28:24.142Z,19.75
2023-01-21T00:30:52.439Z,19.30
2023-01-21T00:33:18.975Z,19.35
2023-01-21T00:35:45.327Z,19.85
2023-01-21T00:38:11.634Z,20.00
2023-01-21T00:40:37.973Z,21.17
2023-01-21T00:43:04.283Z,19.63
2023-01-21T00:45:30.594Z,19.58
2023-01-21T00:47:56.971Z,19.58
2023-01-21T00:50:23.356Z,20.63
2023-01-21T00:52:49.751Z,19.83
2023-01-21T00:55:16.144Z,21.33
2023-01-21T00:57:42.804Z,18.73
2023-01-21T01:00:11.136Z,20.85
2023-01-21T01:02:37.810Z,20.77
2023-01-21T01:05:05.854Z,20.63
2023-01-21T01:07:32.184Z,18.65
2023-01-21T01:09:58.652Z,20.77
2023-01-21T01:12:25.048Z,18.67
2023-01-21T01:14:51.408Z,20.85
2023-01-21T01:17:17.695Z,21.23
2023-01-21T01:19:44.066Z,18.92
2023-01-21T01:22:10.445Z,20.20
2023-01-21T01:24:36.739Z,21.15
2023-01-21T01:27:03.063Z,21.08
2023-01-21T01:29:29.500Z,19.95
2023-01-21T01:31:55.969Z,21.35
2023-01-21T01:34:22.300Z,21.45
2023-01-21T01:36:48.975Z,21.05
2023-01-21T01:39:15.353Z,20.92
2023-01-21T01:41:41.685Z,21.08
2023-01-21T01:44:26.844Z,18.88
2023-01-21T01:46:55.696Z,19.70
2023-01-21T01:49:22.315Z,17.35
2023-01-21T01:51:48.692Z,20.10
2023-01-21T01:54:17.808Z,18.90
2023-01-21T01:56:46.688Z,21.35
2023-01-21T01:59:13.199Z,20.65
2023-01-21T02:01:39.626Z,20.95
2023-01-21T02:04:07.884Z,20.58
2023-01-21T02:06:34.469Z,19.40
2023-01-21T02:09:00.832Z,21.27
2023-01-21T02:11:27.196Z,20.48
2023-01-21T02:13:56.838Z,20.63
2023-01-21T02:16:31.838Z,21.60
2023-01-21T02:18:58.113Z,15.47
2023-01-21T02:21:25.196Z,18.17
2023-01-21T02:24:06.955Z,21.20
2023-01-21T02:26:33.258Z,20.75
2023-01-21T02:28:59.571Z,19.35
2023-01-21T02:31:45.878Z,19.58
2023-01-21T02:36:46.618Z,20.08
2023-01-21T02:39:17.736Z,17.35
2023-01-21T02:41:50.730Z,20.05
2023-01-21T02:44:21.685Z,19.73
2023-01-21T02:46:48.088Z,20.42
2023-01-21T02:49:23.795Z,19.63
2023-01-21T02:51:50.358Z,20.23
2023-01-21T02:54:36.707Z,16.77
2023-01-21T03:02:06.822Z,19.35
2023-01-21T03:04:46.123Z,19.45
2023-01-21T03:07:35.825Z,20.27
2023-01-21T03:10:18.045Z,21.05
2023-01-21T03:12:50.489Z,20.55
2023-01-21T03:15:51.264Z,18.42
2023-01-21T03:18:31.400Z,19.80
2023-01-21T03:21:24.024Z,15.85
2023-01-21T03:23:52.093Z,19.45
2023-01-21T03:26:20.543Z,20.63
2023-01-21T03:28:48.994Z,16.38
2023-01-21T03:31:23.795Z,15.85
2023-01-21T03:33:52.413Z,18.25
2023-01-21T03:36:26.562Z,16.42
2023-01-21T03:38:53.494Z,17.30
2023-01-21T03:41:21.927Z,13.45
2023-01-21T03:43:48.532Z,16.80
2023-01-21T03:46:14.978Z,16.63
2023-01-21T03:48:47.973Z,15.45
2023-01-21T03:51:19.461Z,12.80
2023-01-21T03:53:45.864Z,15.40
2023-01-21T03:56:12.231Z,16.60
2023-01-21T03:58:38.629Z,20.00
2023-01-21T04:01:05.120Z,17.45
2023-01-21T04:03:31.464Z,17.17
2023-01-21T04:05:57.791Z,17.10
2023-01-21T04:08:24.312Z,18.70
2023-01-21T04:10:50.617Z,15.85
2023-01-21T04:13:16.954Z,17.70
2023-01-21T04:15:43.283Z,19.67
2023-01-21T04:18:09.572Z,17.98
2023-01-21T04:20:35.902Z,20.20
2023-01-21T04:23:02.367Z,18.10
2023-01-21T04:25:28.696Z,16.60
2023-01-21T04:27:55.066Z,19.80
2023-01-21T04:30:21.476Z,17.25
2023-01-21T04:32:47.956Z,15.40
2023-01-21T04:35:14.359Z,14.13
2023-01-21T04:37:40.783Z,16.45
2023-01-21T04:40:07.348Z,15.95
2023-01-21T04:42:33.752Z,13.77
2023-01-21T04:45:00.234Z,20.67
2023-01-21T04:47:26.608Z,13.60
2023-01-21T04:49:53.599Z,16.67
2023-01-21T04:52:19.983Z,17.70
2023-01-21T04:54:46.399Z,11.68
2023-01-21T04:57:12.792Z,12.07
2023-01-21T04:59:39.156Z,12.40
2023-01-21T05:02:05.642Z,17.83
2023-01-21T05:04:32.935Z,13.70
2023-01-21T05:06:59.651Z,15.13
2023-01-21T05:09:26.047Z,19.15
2023-01-21T05:11:52.432Z,17.80
2023-01-21T05:14:18.872Z,13.98
2023-01-21T05:16:45.257Z,16.23
2023-01-21T05:19:11.855Z,17.63
2023-01-21T05:21:38.218Z,16.08
2023-01-21T05:24:04.663Z,15.07
2023-01-21T05:26:31.032Z,17.20
2023-01-21T05:28:57.494Z,16.02
2023-01-21T05:31:25.225Z,16.30
2023-01-21T05:33:51.699Z,11.70
2023-01-21T05:36:18.033Z,16.30
2023-01-21T05:38:44.368Z,10.73
2023-01-21T05:41:10.681Z,11.82
2023-01-21T05:43:37.058Z,8.43
2023-01-21T05:46:03.443Z,15.05
2023-01-21T05:48:29.848Z,11.73
2023-01-21T05:50:58.272Z,11.25
2023-01-21T05:53:25.220Z,8.80
2023-01-21T05:55:53.166Z,17.80
2023-01-21T05:58:19.760Z,16.92
2023-01-21T06:00:47.563Z,12.90
2023-01-21T06:03:14.687Z,14.48
2023-01-21T06:05:41.670Z,18.73
2023-01-21T06:08:08.741Z,11.98
2023-01-21T06:10:35.153Z,10.68
2023-01-21T06:13:01.587Z,14.43
2023-01-21T06:15:28.036Z,14.30
2023-01-21T06:17:54.520Z,12.95
2023-01-21T06:20:21.203Z,13.45
2023-01-21T06:22:47.730Z,12.73
2023-01-21T06:25:14.091Z,11.45
2023-01-21T06:27:40.531Z,14.20
2023-01-21T06:30:07.795Z,11.90
2023-01-21T06:32:34.731Z,15.55
2023-01-21T06:35:01.119Z,11.48
2023-01-21T06:37:27.578Z,14.95
2023-01-21T06:39:54.128Z,14.65
2023-01-21T06:42:20.595Z,12.70
2023-01-21T06:44:46.999Z,17.98
2023-01-21T06:47:13.569Z,14.48
2023-01-21T06:49:39.999Z,16.17
2023-01-21T06:52:06.739Z,13.10
2023-01-21T06:54:33.068Z,16.70
2023-01-21T06:56:59.524Z,15.95
2023-01-21T06:59:25.985Z,17.45
2023-01-21T07:01:52.419Z,19.25
2023-01-21T07:04:19.122Z,12.80
2023-01-21T07:06:45.479Z,16.52
2023-01-21T07:09:11.815Z,10.80
2023-01-21T07:11:38.204Z,15.27
2023-01-21T07:14:04.512Z,11.20
2023-01-21T07:16:30.866Z,17.50
2023-01-21T07:18:57.351Z,14.48
2023-01-21T07:21:26.628Z,14.18
2023-01-21T07:23:53.273Z,15.75
2023-01-21T07:26:19.864Z,17.15
2023-01-21T07:28:46.298Z,15.55
2023-01-21T07:31:13.790Z,14.27
2023-01-21T07:33:40.555Z,15.73
2023-01-21T07:36:07.033Z,7.47
2023-01-21T07:38:33.415Z,16.27
2023-01-21T07:40:59.808Z,16.25
2023-01-21T07:43:28.068Z,16.70
2023-01-21T07:45:55.301Z,15.23
2023-01-21T07:48:21.825Z,16.38
2023-01-21T07:50:48.280Z,13.00
2023-01-21T07:53:14.696Z,13.73
2023-01-21T07:55:41.136Z,13.35
2023-01-21T07:58:07.618Z,17.55
2023-01-21T08:00:33.993Z,15.07
2023-01-21T08:03:00.473Z,15.57
2023-01-21T08:05:26.804Z,17.95
2023-01-21T08:07:53.204Z,15.93
2023-01-21T08:10:22.155Z,17.90
2023-01-21T08:12:48.585Z,16.85
2023-01-21T08:15:15.317Z,17.70
2023-01-21T08:17:42.834Z,17.95
2023-01-21T08:20:10.163Z,16.15
2023-01-21T08:22:37.024Z,17.90
2023-01-21T08:25:04.026Z,17.77
2023-01-21T08:27:30.432Z,14.57
2023-01-21T08:29:56.816Z,18.17
2023-01-21T08:32:23.268Z,21.58
2023-01-21T08:34:50.298Z,18.38
2023-01-21T08:37:16.800Z,19.15
2023-01-21T08:39:43.140Z,17.52
2023-01-21T08:42:09.490Z,18.50
2023-01-21T08:44:36.018Z,18.00
2023-01-21T08:47:02.544Z,16.13
2023-01-21T08:49:28.866Z,12.80
2023-01-21T08:51:55.333Z,20.40
2023-01-21T08:54:21.705Z,19.42
2023-01-21T08:56:48.054Z,17.23
2023-01-21T08:59:14.466Z,16.98
2023-01-21T09:01:40.925Z,19.20
2023-01-21T09:04:07.408Z,19.27
2023-01-21T09:06:34.102Z,20.75
2023-01-21T09:09:00.573Z,20.80
2023-01-21T09:11:28.954Z,18.30
2023-01-21T09:13:57.943Z,18.52
2023-01-21T09:16:24.428Z,21.77
2023-01-21T09:18:51.009Z,20.92
2023-01-21T09:21:17.569Z,18.98
2023-01-21T09:23:44.407Z,21.15
2023-01-21T09:26:13.815Z,21.63
2023-01-21T09:28:42.316Z,21.83
2023-01-21T09:31:10.662Z,18.65
2023-01-21T09:33:38.339Z,18.25
2023-01-21T09:36:05.883Z,20.75
2023-01-21T09:38:32.499Z,18.80
2023-01-21T09:41:13.455Z,18.30
2023-01-21T09:43:42.585Z,18.77
2023-01-21T09:46:15.020Z,20.55
2023-01-21T09:48:42.746Z,18.95
2023-01-21T09:51:28.689Z,22.02
2023-01-21T09:53:56.069Z,18.45
2023-01-21T09:56:30.559Z,18.15
2023-01-21T09:59:18.055Z,18.27
2023-01-21T10:01:45.641Z,18.15
2023-01-21T10:04:34.144Z,21.20
2023-01-21T10:07:11.254Z,22.17
2023-01-21T10:09:49.791Z,21.27
2023-01-21T10:12:25.183Z,21.67
2023-01-21T10:14:59.641Z,21.98
2023-01-21T10:17:32.247Z,22.30
2023-01-21T10:20:17.122Z,23.35
2023-01-21T10:22:48.067Z,21.17
2023-01-21T10:25:14.500Z,20.83
2023-01-21T10:27:42.495Z,20.90
2023-01-21T10:30:17.916Z,18.50
2023-01-21T10:32:44.693Z,16.52
2023-01-21T10:35:20.670Z,20.50
2023-01-21T10:37:58.317Z,20.45
2023-01-21T10:40:43.969Z,19.17
2023-01-21T10:43:29.214Z,21.08
2023-01-21T10:45:58.608Z,18.15
2023-01-21T10:48:34.760Z,17.65
2023-01-21T10:51:06.057Z,18.90
2023-01-21T10:53:41.982Z,17.13
2023-01-21T11:03:38.717Z,13.18
2023-01-21T11:06:08.436Z,17.80
2023-01-21T11:08:34.856Z,15.88
2023-01-21T11:11:01.624Z,16.35
2023-01-21T11:13:28.019Z,16.10
2023-01-21T11:15:55.482Z,16.67
2023-01-21T11:18:25.795Z,12.00
2023-01-21T11:20:55.272Z,15.68
2023-01-21T11:23:28.237Z,16.30
2023-01-21T11:26:06.844Z,16.08
2023-01-21T11:28:34.667Z,11.90
2023-01-21T11:31:05.500Z,11.55
2023-01-21T11:33:32.183Z,15.30
2023-01-21T11:36:08.913Z,13.68
2023-01-21T11:38:35.992Z,15.90
2023-01-21T11:41:10.841Z,16.02
2023-01-21T11:44:00.206Z,11.38
2023-01-21T11:46:26.565Z,15.95
2023-01-21T11:49:08.202Z,14.00
2023-01-21T11:51:35.172Z,16.45
2023-01-21T11:54:08.759Z,15.77
2023-01-21T11:56:35.930Z,15.82
2023-01-21T11:59:10.248Z,14.27
2023-01-21T12:01:36.685Z,15.82
2023-01-21T12:04:03.114Z,15.13
2023-01-21T12:06:32.488Z,15.30
2023-01-21T12:09:02.558Z,14.75
2023-01-21T12:11:30.914Z,15.85
2023-01-21T12:13:58.040Z,15.13
2023-01-21T12:16:30.401Z,15.18
2023-01-21T12:19:05.556Z,12.40
2023-01-21T12:21:31.866Z,13.82
2023-01-21T12:24:04.021Z,16.15
2023-01-21T12:26:42.869Z,14.93
2023-01-21T12:29:27.832Z,14.68
2023-01-21T12:31:54.445Z,15.23
2023-01-21T12:34:31.066Z,16.15
2023-01-21T12:37:03.506Z,13.27
2023-01-21T12:39:33.208Z,16.60
2023-01-21T12:42:09.614Z,13.63
2023-01-21T12:44:50.082Z,13.38
2023-01-21T12:47:22.501Z,12.50
2023-01-21T12:49:52.610Z,16.42
2023-01-21T12:52:22.353Z,13.27
2023-01-21T12:54:52.800Z,11.23
2023-01-21T12:57:27.226Z,18.10
2023-01-21T12:59:57.110Z,17.15
2023-01-21T13:02:33.168Z,14.75
2023-01-21T13:04:59.465Z,14.98
2023-01-21T13:07:31.859Z,13.85
2023-01-21T13:09:58.175Z,17.35
2023-01-21T13:12:25.927Z,18.08
2023-01-21T13:14:58.844Z,16.95
2023-01-21T13:17:28.934Z,14.18
2023-01-21T13:19:55.382Z,12.98
2023-01-21T13:22:33.585Z,13.52
2023-01-21T13:25:03.204Z,16.00
2023-01-21T13:27:34.500Z,12.40
2023-01-21T13:30:17.510Z,15.43
2023-01-21T13:32:50.262Z,13.93
2023-01-21T13:35:19.715Z,13.30
2023-01-21T13:37:49.127Z,12.65
2023-01-21T13:40:25.752Z,14.68
2023-01-21T13:42:58.270Z,14.52
2023-01-21T13:45:27.698Z,14.10
2023-01-21T13:48:17.532Z,15.32
2023-01-21T13:50:46.712Z,14.82
2023-01-21T13:53:18.676Z,16.50
2023-01-21T13:56:05.638Z,12.10
2023-01-21T13:58:44.409Z,15.27
2023-01-21T14:01:14.502Z,8.35
2023-01-21T14:03:43.634Z,11.02
2023-01-21T14:06:19.912Z,10.88
2023-01-21T14:08:52.101Z,15.73
2023-01-21T14:11:18.498Z,12.95
2023-01-21T14:14:08.139Z,13.98
2023-01-21T14:16:53.046Z,11.45
2023-01-21T14:19:19.707Z,12.55
2023-01-21T14:21:55.149Z,11.63
2023-01-21T14:24:33.569Z,13.00
2023-01-21T14:27:19.703Z,11.02
2023-01-21T14:29:54.748Z,10.63
2023-01-21T14:32:28.377Z,11.95
2023-01-21T14:34:54.690Z,10.43
2023-01-21T14:37:29.044Z,12.00
2023-01-21T14:40:04.932Z,11.82
2023-01-21T14:45:04.181Z,14.38
2023-01-21T14:47:30.494Z,9.20
2023-01-21T14:49:58.114Z,12.70
2023-01-21T14:52:27.284Z,12.63
2023-01-21T14:54:53.740Z,12.55
2023-01-21T14:57:23.096Z,14.30
2023-01-21T14:59:50.542Z,13.38
2023-01-21T15:02:23.456Z,14.65
2023-01-21T15:04:54.757Z,13.95
2023-01-21T15:07:23.213Z,11.35
2023-01-21T15:09:54.313Z,11.10
2023-01-21T15:12:27.280Z,12.48
2023-01-21T15:14:58.469Z,11.75
2023-01-21T15:17:44.278Z,11.82
2023-01-21T15:20:29.020Z,11.30
2023-01-21T15:23:24.727Z,12.82
2023-01-21T15:26:03.344Z,12.38
2023-01-21T15:28:46.305Z,9.23
2023-01-21T15:31:32.639Z,12.27
2023-01-21T15:34:00.758Z,13.90
2023-01-21T15:36:31.783Z,15.23
2023-01-21T15:39:01.963Z,16.95
2023-01-21T15:41:28.575Z,19.42
2023-01-21T15:44:08.309Z,24.02
2023-01-21T15:46:46.813Z,25.33
2023-01-21T15:49:31.806Z,25.02
2023-01-21T15:52:01.251Z,23.90
2023-01-21T15:54:36.860Z,24.90
2023-01-21T15:57:03.277Z,21.42
2023-01-21T15:59:41.983Z,21.15
2023-01-21T16:02:11.377Z,13.43
2023-01-21T16:04:40.639Z,10.30
2023-01-21T16:07:06.978Z,10.05
2023-01-21T16:09:56.668Z,9.52
2023-01-21T16:12:22.993Z,9.48
2023-01-21T16:14:55.418Z,9.38
2023-01-21T16:17:24.652Z,9.55
2023-01-21T16:19:52.656Z,10.25
2023-01-21T16:22:21.673Z,9.95
2023-01-21T16:24:49.720Z,9.50
2023-01-21T16:27:20.210Z,8.77
2023-01-21T16:29:46.616Z,8.40
2023-01-21T16:32:16.990Z,7.07
2023-01-21T16:34:43.424Z,7.47
2023-01-21T16:37:13.998Z,7.80
2023-01-21T16:39:41.279Z,8.75
2023-01-21T16:42:20.623Z,9.40
2023-01-21T16:44:47.095Z,10.48
2023-01-21T16:47:20.227Z,9.25
2023-01-21T16:49:46.649Z,9.57
2023-01-21T16:52:19.832Z,11.15
2023-01-21T16:54:50.354Z,10.75
2023-01-21T16:57:16.665Z,9.73
2023-01-21T16:59:44.761Z,11.80
2023-01-21T17:02:31.549Z,12.68
2023-01-21T17:05:04.475Z,11.88
2023-01-21T17:07:37.840Z,13.10
2023-01-21T17:10:05.682Z,12.75
2023-01-21T17:12:33.657Z,14.02
2023-01-21T17:15:03.747Z,13.60
2023-01-21T17:17:31.777Z,13.23
2023-01-21T17:19:58.479Z,12.35
2023-01-21T17:22:26.468Z,13.48
2023-01-21T17:24:57.214Z,13.25
2023-01-21T17:27:24.730Z,12.55
2023-01-21T17:29:51.319Z,11.82
2023-01-21T17:32:20.804Z,11.90
2023-01-21T17:35:02.176Z,12.65
2023-01-21T17:37:47.062Z,12.80
2023-01-21T17:40:28.516Z,13.32
2023-01-21T17:42:55.319Z,14.23
2023-01-21T17:45:32.199Z,14.45
2023-01-21T17:48:14.868Z,13.75
2023-01-21T17:50:45.149Z,15.13
2023-01-21T17:53:17.065Z,14.95
2023-01-21T17:55:54.740Z,13.93
2023-01-21T17:58:36.456Z,15.90
2023-01-21T18:01:03.696Z,14.85
2023-01-21T18:03:30.023Z,15.85
2023-01-21T18:05:56.833Z,14.35
2023-01-21T18:08:23.161Z,15.85
2023-01-21T18:10:50.243Z,15.18
2023-01-21T18:13:17.623Z,15.85
2023-01-21T18:15:44.576Z,13.43
2023-01-21T18:18:21.810Z,14.75
2023-01-21T18:20:48.155Z,16.02
2023-01-21T18:23:18.197Z,15.40
2023-01-21T18:25:48.634Z,12.43
2023-01-21T18:28:19.342Z,15.85
2023-01-21T18:30:46.059Z,15.93
2023-01-21T18:33:12.736Z,16.48
2023-01-21T18:35:39.973Z,16.55
2023-01-21T18:38:10.305Z,17.35
2023-01-21T18:40:36.626Z,17.63
2023-01-21T18:43:02.980Z,15.85
2023-01-21T18:45:29.360Z,15.57
2023-01-21T18:47:56.757Z,15.27
2023-01-21T18:50:24.591Z,17.80
2023-01-21T18:52:50.964Z,18.42
2023-01-21T18:55:17.976Z,17.08
2023-01-21T18:57:46.605Z,18.33
2023-01-21T19:00:34.022Z,18.55
2023-01-21T19:03:01.592Z,20.00
2023-01-21T19:05:30.624Z,21.33
2023-01-21T19:07:57.330Z,19.95
2023-01-21T19:10:23.788Z,19.25
2023-01-21T19:12:50.198Z,20.02
2023-01-21T19:15:18.167Z,19.88
2023-01-21T19:17:45.068Z,18.92
2023-01-21T19:20:16.250Z,19.42
2023-01-21T19:22:42.840Z,20.77
2023-01-21T19:25:09.480Z,20.45
2023-01-21T19:27:37.963Z,19.20
2023-01-21T19:30:15.255Z,19.65
2023-01-21T19:32:41.805Z,19.98
2023-01-21T19:35:08.332Z,19.95
2023-01-21T19:37:34.748Z,19.65
2023-01-21T19:40:01.095Z,19.98
2023-01-21T19:42:27.560Z,19.63
2023-01-21T19:44:53.917Z,20.63
2023-01-21T19:47:24.650Z,20.70
2023-01-21T19:49:51.028Z,21.63
2023-01-21T19:52:17.365Z,20.67
2023-01-21T19:54:43.893Z,20.63
2023-01-21T19:57:14.387Z,19.77
2023-01-21T19:59:41.219Z,20.90
2023-01-21T20:02:09.318Z,20.00
2023-01-21T20:04:36.019Z,19.65
2023-01-21T20:07:02.387Z,21.48
2023-01-21T20:09:28.901Z,20.42
2023-01-21T20:11:55.291Z,19.80
2023-01-21T20:14:21.739Z,22.15
2023-01-21T20:16:50.072Z,23.17
2023-01-21T20:19:17.751Z,24.58
2023-01-21T20:21:59.702Z,23.77
2023-01-21T20:24:30.054Z,21.98
2023-01-21T20:26:56.699Z,23.65
2023-01-21T20:29:23.028Z,18.88
2023-01-21T20:31:49.455Z,22.23
2023-01-21T20:34:15.870Z,22.45
2023-01-21T20:36:44.244Z,21.27
2023-01-21T20:39:12.970Z,20.00
2023-01-21T20:41:40.852Z,20.85
2023-01-21T20:44:07.230Z,18.73
2023-01-21T20:46:33.800Z,19.38
2023-01-21T20:49:00.501Z,19.23
2023-01-21T20:51:26.923Z,21.00
2023-01-21T20:53:53.561Z,18.20
2023-01-21T20:56:19.901Z,18.90
2023-01-21T20:58:47.908Z,20.23
2023-01-21T21:01:15.473Z,19.10
2023-01-21T21:03:41.906Z,18.40
2023-01-21T21:06:12.041Z,25.83
2023-01-21T21:08:38.354Z,23.67
2023-01-21T21:11:04.812Z,29.88
2023-01-21T21:13:31.158Z,20.30
2023-01-21T21:15:57.508Z,21.05
2023-01-21T21:18:24.263Z,20.65
2023-01-21T21:20:51.715Z,21.33
2023-01-21T21:23:18.091Z,20.30
2023-01-21T21:25:45.412Z,22.23
2023-01-21T21:28:15.669Z,20.70
2023-01-21T21:30:42.257Z,22.45
2023-01-21T21:33:14.040Z,17.58
2023-01-21T21:35:40.854Z,24.05
2023-01-21T21:38:10.045Z,20.85
2023-01-21T21:40:36.480Z,20.83
2023-01-21T21:43:21.907Z,20.45
2023-01-21T21:46:07.176Z,21.10
2023-01-21T21:48:39.583Z,19.40
2023-01-21T21:51:06.676Z,21.08
2023-01-21T21:53:33.030Z,21.95
2023-01-21T21:56:03.328Z,22.33
2023-01-21T21:58:29.660Z,21.83
2023-01-21T22:00:56.096Z,21.38
2023-01-21T22:03:22.649Z,21.13
2023-01-21T22:05:53.501Z,20.85
2023-01-21T22:08:19.949Z,20.25
2023-01-21T22:10:47.087Z,20.20
2023-01-21T22:13:13.461Z,19.70
2023-01-21T22:15:39.845Z,18.85
2023-01-21T22:18:06.269Z,16.45
2023-01-21T22:20:32.635Z,16.30
2023-01-21T22:22:58.993Z,15.95
2023-01-21T22:25:25.464Z,14.85
2023-01-21T22:27:51.837Z,17.48
2023-01-21T22:30:18.332Z,16.73
2023-01-21T22:32:44.659Z,15.23
2023-01-21T22:35:10.969Z,14.13
2023-01-21T22:37:37.333Z,14.48
2023-01-21T22:40:03.917Z,14.70
2023-01-21T22:42:30.261Z,14.73
2023-01-21T22:44:56.647Z,13.43
2023-01-21T22:47:23.062Z,13.35
2023-01-21T22:49:49.364Z,12.65
2023-01-21T22:52:15.686Z,12.77
2023-01-21T22:54:42.068Z,11.52
2023-01-21T22:57:08.448Z,11.48
2023-01-21T22:59:34.883Z,10.38
2023-01-21T23:02:01.271Z,12.25
2023-01-21T23:04:27.751Z,13.13
2023-01-21T23:06:54.984Z,10.75
2023-01-21T23:09:21.624Z,11.32
2023-01-21T23:11:48.008Z,11.45
2023-01-21T23:14:14.388Z,10.38
2023-01-21T23:16:40.908Z,11.15
2023-01-21T23:19:07.249Z,10.85
2023-01-21T23:21:33.591Z,11.13
2023-01-21T23:24:00.046Z,10.85
2023-01-21T23:26:26.412Z,11.23
2023-01-21T23:28:56.429Z,10.80
2023-01-21T23:31:23.316Z,10.50
2023-01-21T23:33:53.439Z,10.82
2023-01-21T23:36:19.900Z,10.43
2023-01-21T23:38:46.345Z,10.75
2023-01-21T23:41:13.732Z,9.98
2023-01-21T23:43:40.435Z,9.93
2023-01-21T23:46:16.476Z,9.25
2023-01-21T23:48:43.114Z,10.45
2023-01-21T23:51:11.137Z,8.90
2023-01-21T23:53:37.619Z,10.05
2023-01-21T23:56:08.675Z,9.13
2023-01-21T23:58:35.342Z,9.93
